Time;durP1;ratioP1;P1;durP2;ratioP2;P2;SDS_P1;SDS_P2;PMS_P1;PMS_P2;Temp;Humidity;BMP_temperature;BMP_pressure;BME280_temperature;BME280_humidity;BME280_pressure;Samples;Min_cycle;Max_cycle;Signal;HPM_P1;HPM_P2
2022/03/27 00:01:51;;;;;;;21.33;6.53;;;;;;;5.89;100.00;103143.34;10119384;28;20630;-67
2022/03/27 00:06:47;;;;;;;22.08;6.78;;;;;;;5.80;100.00;103143.84;10142808;28;20050;-68
2022/03/27 00:11:44;;;;;;;28.52;7.82;;;;;;;5.83;100.00;103157.00;10154123;28;20054;-68
2022/03/27 00:16:41;;;;;;;28.40;7.80;;;;;;;5.69;100.00;103154.41;10152678;28;20505;-67
2022/03/27 00:21:41;;;;;;;27.38;8.02;;;;;;;5.61;100.00;103151.97;10153925;28;20054;-68
2022/03/27 00:26:37;;;;;;;29.95;7.68;;;;;;;5.66;100.00;103146.72;10145925;28;20057;-67
2022/03/27 00:31:36;;;;;;;24.65;8.85;;;;;;;5.76;100.00;103145.38;10153807;28;20050;-67
2022/03/27 00:36:33;;;;;;;26.95;7.57;;;;;;;5.66;100.00;103146.72;10134147;28;20105;-67
2022/03/27 00:41:30;;;;;;;24.55;8.70;;;;;;;5.57;100.00;103145.38;10153449;28;20501;-67
2022/03/27 00:46:26;;;;;;;24.70;8.18;;;;;;;5.61;100.00;103146.53;10150349;28;20057;-68
2022/03/27 00:51:23;;;;;;;21.13;8.18;;;;;;;5.47;100.00;103145.03;10145263;28;20145;-68
2022/03/27 00:56:19;;;;;;;23.25;7.07;;;;;;;5.45;100.00;103141.72;10150449;28;20042;-68
2022/03/27 01:01:32;;;;;;;31.27;8.43;;;;;;;5.54;100.00;103140.38;10149677;28;20169;-68
2022/03/27 01:06:31;;;;;;;;;;;;;;;5.60;100.00;103134.03;10155174;28;20471;-70
2022/03/27 01:11:28;;;;;;;27.70;8.95;;;;;;;5.45;100.00;103128.13;10174135;28;19921;-69
2022/03/27 02:06:40;;;;;;;21.83;8.18;;;;;;;5.31;100.00;103140.19;10138865;28;20050;-68
2022/03/27 02:11:37;;;;;;;36.08;9.20;;;;;;;5.31;100.00;103134.75;10151965;28;20498;-69
2022/03/27 02:16:33;;;;;;;29.30;7.85;;;;;;;5.34;100.00;103145.16;10139185;28;20049;-68
2022/03/27 02:21:30;;;;;;;27.08;8.25;;;;;;;5.30;100.00;103138.53;10137430;28;20050;-70
2022/03/27 02:26:26;;;;;;;23.98;8.43;;;;;;;5.28;100.00;103147.72;10144669;28;20054;-70
2022/03/27 02:31:23;;;;;;;33.50;9.95;;;;;;;5.30;100.00;103154.81;10148700;28;20567;-68
2022/03/27 02:36:19;;;;;;;22.38;8.98;;;;;;;5.22;100.00;103139.63;10135718;28;20456;-67
2022/03/27 02:41:16;;;;;;;31.10;10.18;;;;;;;5.05;100.00;103131.22;10147300;28;20154;-68
2022/03/27 02:46:12;;;;;;;37.13;11.77;;;;;;;5.15;100.00;103142.41;10138437;28;20101;-67
2022/03/27 02:51:09;;;;;;;30.92;9.98;;;;;;;5.12;100.00;103142.84;10156083;28;20046;-67
2022/03/27 02:56:07;;;;;;;30.27;10.45;;;;;;;5.05;100.00;103137.47;10151875;28;20097;-67
2022/03/27 03:01:04;;;;;;;24.60;9.20;;;;;;;4.98;100.00;103135.88;10170608;28;20058;-66
2022/03/27 03:06:05;;;;;;;33.38;9.85;;;;;;;4.89;100.00;103129.06;10168523;28;20129;-67
2022/03/27 03:11:02;;;;;;;31.25;13.30;;;;;;;4.96;100.00;103137.97;10156741;28;20429;-67
2022/03/27 03:15:59;;;;;;;30.65;12.52;;;;;;;4.80;100.00;103132.06;10155234;28;20092;-68
2022/03/27 03:20:56;;;;;;;35.35;13.57;;;;;;;4.83;100.00;103123.47;10155392;28;20050;-69
2022/03/27 03:25:53;;;;;;;29.88;14.23;;;;;;;4.69;100.00;103121.91;10153713;28;20105;-67
2022/03/27 03:31:02;;;;;;;36.15;13.85;;;;;;;4.68;100.00;103103.97;10156414;28;20057;-69
2022/03/27 03:35:59;;;;;;;25.45;10.45;;;;;;;4.59;100.00;103108.00;10136900;28;20046;-70
2022/03/27 03:40:56;;;;;;;21.40;9.52;;;;;;;4.56;100.00;103100.31;10155786;28;20512;-70
2022/03/27 03:45:52;;;;;;;26.65;9.60;;;;;;;4.49;100.00;103091.41;10143840;28;20500;-70
2022/03/27 03:50:49;;;;;;;23.25;9.48;;;;;;;4.47;100.00;103086.22;10155453;28;20101;-70
2022/03/27 03:55:45;;;;;;;25.73;9.85;;;;;;;4.45;100.00;103098.31;10149478;28;20043;-69
2022/03/27 04:00:42;;;;;;;21.90;9.70;;;;;;;4.40;100.00;103088.94;10144554;28;20116;-69
2022/03/27 04:05:39;;;;;;;26.55;10.18;;;;;;;4.37;100.00;103097.53;10134268;28;20042;-68
2022/03/27 04:10:36;;;;;;;24.55;8.82;;;;;;;4.34;100.00;103103.38;10159406;28;20074;-68
2022/03/27 04:15:33;;;;;;;27.63;10.57;;;;;;;4.35;100.00;103115.03;10169799;28;20520;-67
2022/03/27 04:20:50;;;;;;;23.30;9.73;;;;;;;4.36;100.00;103106.72;10113994;28;20042;-67
2022/03/27 04:25:46;;;;;;;25.70;8.93;;;;;;;4.38;100.00;103115.44;10142872;28;20073;-67
2022/03/27 04:30:42;;;;;;;24.73;8.57;;;;;;;4.36;100.00;103122.97;10153477;28;20042;-67
2022/03/27 04:35:39;;;;;;;26.23;11.05;;;;;;;4.40;100.00;103124.16;10152495;28;20072;-68
2022/03/27 04:40:36;;;;;;;33.70;13.32;;;;;;;4.47;100.00;103134.16;10153122;28;20472;-68
2022/03/27 04:45:32;;;;;;;25.63;9.95;;;;;;;4.34;100.00;103125.06;10129050;28;20496;-66
2022/03/27 04:50:29;;;;;;;35.60;13.45;;;;;;;4.37;100.00;103135.44;10148666;28;20505;-66
2022/03/27 04:55:26;;;;;;;37.35;13.43;;;;;;;4.30;100.00;103129.25;10130558;28;20050;-67
2022/03/27 05:00:22;;;;;;;34.50;14.15;;;;;;;4.30;100.00;103129.25;10142833;28;20046;-68
2022/03/27 05:05:19;;;;;;;26.13;12.73;;;;;;;4.17;100.00;103129.28;10144861;28;20535;-68
2022/03/27 05:10:15;;;;;;;27.38;13.15;;;;;;;4.13;100.00;103134.31;10143155;28;20073;-68
2022/03/27 05:15:12;;;;;;;28.40;11.30;;;;;;;4.10;100.00;103140.16;10128964;28;20444;-68
2022/03/27 05:20:09;;;;;;;25.10;11.60;;;;;;;4.22;100.00;103137.59;10120024;28;20054;-66
2022/03/27 05:25:06;;;;;;;44.10;15.02;;;;;;;4.29;100.00;103141.09;10145306;28;20582;-68
2022/03/27 05:30:03;;;;;;;42.25;14.82;;;;;;;4.23;100.00;103144.69;10150931;28;20054;-68
2022/03/27 05:34:59;;;;;;;52.58;16.08;;;;;;;4.24;100.00;103151.75;10151272;28;20050;-69
2022/03/27 05:39:56;;;;;;;72.20;16.98;;;;;;;4.24;100.00;103146.34;10150466;28;20043;-69
2022/03/27 05:44:52;;;;;;;49.15;17.10;;;;;;;4.36;100.00;103155.47;10130645;28;20595;-67
2022/03/27 05:49:49;;;;;;;48.83;16.83;;;;;;;4.36;100.00;103149.19;10149373;28;20141;-67
2022/03/27 05:54:45;;;;;;;56.42;16.88;;;;;;;4.56;100.00;103138.25;10144592;28;20054;-68
2022/03/27 05:59:42;;;;;;;84.57;18.30;;;;;;;4.62;100.00;103137.41;10150097;28;20081;-67
2022/03/27 06:04:39;;;;;;;111.30;17.98;;;;;;;4.67;100.00;103145.69;10145677;28;20061;-68
2022/03/27 06:09:36;;;;;;;46.50;16.38;;;;;;;4.65;100.00;103145.09;10149346;28;20088;-69
2022/03/27 06:14:32;;;;;;;65.10;19.60;;;;;;;4.71;100.00;103143.38;10148819;28;20573;-67
2022/03/27 06:19:30;;;;;;;35.40;15.13;;;;;;;4.85;100.00;103153.91;10149531;28;20101;-69
2022/03/27 06:24:27;;;;;;;38.83;14.27;;;;;;;5.06;100.00;103160.03;10148454;28;20054;-69
2022/03/27 06:29:23;;;;;;;33.65;14.68;;;;;;;5.10;100.00;103166.63;10148736;28;20047;-68
2022/03/27 06:34:20;;;;;;;34.95;14.43;;;;;;;5.11;100.00;103162.91;10131753;28;20053;-65
2022/03/27 06:39:16;;;;;;;38.28;14.23;;;;;;;5.10;100.00;103161.22;10146228;28;20042;-67
2022/03/27 06:44:13;;;;;;;33.95;12.60;;;;;;;5.08;100.00;103163.31;10118754;28;20050;-68
2022/03/27 06:49:10;;;;;;;32.03;13.63;;;;;;;5.15;100.00;103164.13;10148431;28;20046;-68
2022/03/27 06:54:06;;;;;;;31.30;12.20;;;;;;;5.18;100.00;103163.66;10151897;28;20050;-68
2022/03/27 06:59:03;;;;;;;34.78;12.23;;;;;;;5.22;100.00;103169.47;10160924;28;20141;-68
2022/03/27 07:04:00;;;;;;;31.42;13.45;;;;;;;5.29;100.00;103181.09;10172166;28;20471;-68
2022/03/27 07:08:56;;;;;;;27.33;10.50;;;;;;;5.43;100.00;103179.09;10148529;28;20149;-71
2022/03/27 07:13:53;;;;;;;24.77;10.48;;;;;;;5.56;100.00;103192.53;10142695;28;20647;-67
2022/03/27 07:18:49;;;;;;;36.15;12.48;;;;;;;5.64;100.00;103194.97;10135129;28;20042;-66
2022/03/27 07:23:46;;;;;;;31.20;12.27;;;;;;;5.81;100.00;103213.41;10113286;28;20409;-67
2022/03/27 07:28:43;;;;;;;37.75;14.18;;;;;;;5.65;100.00;103228.38;10132818;28;20130;-66
2022/03/27 07:33:39;;;;;;;33.75;12.13;;;;;;;5.87;100.00;103209.75;10144440;28;20133;-66
2022/03/27 07:38:36;;;;;;;33.25;13.10;;;;;;;5.88;100.00;103216.88;10142841;28;20108;-66
2022/03/27 07:43:32;;;;;;;35.42;14.27;;;;;;;5.98;100.00;103200.91;10146072;28;20043;-65
2022/03/27 07:48:29;;;;;;;39.45;13.50;;;;;;;6.22;100.00;103198.31;10119975;28;20620;-67
2022/03/27 07:53:27;;;;;;;38.83;13.90;;;;;;;6.22;100.00;103187.47;10149413;28;20070;-66
2022/03/27 07:58:24;;;;;;;33.33;13.30;;;;;;;6.23;100.00;103197.28;10145364;28;20042;-65
2022/03/27 08:03:20;;;;;;;35.17;14.98;;;;;;;6.36;100.00;103180.81;10146233;28;20477;-67
2022/03/27 08:08:17;;;;;;;30.67;14.02;;;;;;;6.39;100.00;103171.38;10147807;28;20471;-68
2022/03/27 08:13:14;;;;;;;33.78;14.73;;;;;;;6.43;100.00;103175.28;10147061;28;20043;-68
2022/03/27 08:18:13;;;;;;;39.30;17.48;;;;;;;6.44;100.00;103180.50;10147103;28;20061;-68
2022/03/27 08:23:10;;;;;;;42.28;17.23;;;;;;;6.33;100.00;103186.69;10148332;28;20054;-68
2022/03/27 08:28:08;;;;;;;53.22;19.48;;;;;;;6.23;100.00;103186.41;10123762;28;20157;-68
2022/03/27 08:33:05;;;;;;;43.20;17.10;;;;;;;6.28;100.00;103189.28;10105719;28;20062;-68
2022/03/27 08:38:02;;;;;;;42.70;16.58;;;;;;;6.49;100.00;103177.91;10111061;28;20057;-68
2022/03/27 08:42:59;;;;;;;52.80;16.48;;;;;;;6.57;100.00;103178.63;10111954;28;20050;-68
2022/03/27 08:47:56;;;;;;;41.45;15.00;;;;;;;6.70;100.00;103175.75;10112312;28;20096;-69
2022/03/27 08:53:04;;;;;;;38.65;11.95;;;;;;;6.84;100.00;103171.75;10103763;28;20042;-70
2022/03/27 08:58:01;;;;;;;37.53;10.63;;;;;;;7.01;100.00;103182.81;10142030;28;20082;-68
2022/03/27 09:02:59;;;;;;;41.55;10.70;;;;;;;7.12;100.00;103173.00;10130040;28;20061;-69
2022/03/27 09:07:57;;;;;;;34.05;11.88;;;;;;;7.41;100.00;103184.06;10144866;28;20065;-68
2022/03/27 09:12:55;;;;;;;36.25;12.35;;;;;;;7.55;100.00;103180.03;10148827;28;20061;-69
2022/03/27 09:18:09;;;;;;;29.75;9.35;;;;;;;7.79;100.00;103173.47;10146996;28;20510;-69
2022/03/27 09:23:13;;;;;;;31.52;9.57;;;;;;;7.82;100.00;103168.63;10141684;28;20487;-69
2022/03/27 09:28:09;;;;;;;32.20;10.50;;;;;;;7.99;100.00;103161.38;10143421;28;20459;-69
2022/03/27 09:33:06;;;;;;;34.33;8.63;;;;;;;8.22;100.00;103160.50;10146227;28;21165;-67
2022/03/27 09:38:13;;;;;;;29.45;8.48;;;;;;;8.24;100.00;103158.34;10141071;28;20116;-67
2022/03/27 09:43:11;;;;;;;29.30;8.70;;;;;;;8.39;100.00;103144.19;10136676;28;20050;-69
2022/03/27 09:48:09;;;;;;;24.25;8.07;;;;;;;8.32;100.00;103154.41;10135061;28;20073;-68
2022/03/27 09:53:32;;;;;;;32.05;8.90;;;;;;;8.55;100.00;103153.50;10145992;28;20050;-69
2022/03/27 09:58:48;;;;;;;31.50;8.60;;;;;;;8.74;100.00;103145.94;10141163;28;20425;-67
2022/03/27 10:04:07;;;;;;;31.55;9.02;;;;;;;8.81;100.00;103144.69;10143861;28;20493;-68
2022/03/27 10:09:09;;;;;;;27.58;8.35;;;;;;;9.23;100.00;103143.47;10143005;28;20077;-70
2022/03/27 10:14:06;;;;;;;34.53;10.10;;;;;;;9.45;100.00;103136.16;10144468;28;20120;-69
2022/03/27 10:19:06;;;;;;;21.92;9.27;;;;;;;9.54;100.00;103138.44;10145542;28;20116;-68
2022/03/27 10:24:11;;;;;;;30.00;11.23;;;;;;;9.80;100.00;103132.28;10144357;28;20050;-68
2022/03/27 10:29:09;;;;;;;25.45;12.80;;;;;;;10.28;100.00;103130.69;10146586;28;20066;-68
2022/03/27 10:34:10;;;;;;;29.55;11.10;;;;;;;11.00;100.00;103120.41;10148899;28;20116;-68
2022/03/27 10:39:40;;;;;;;22.00;9.57;;;;;;;11.65;100.00;103117.50;10148327;28;20046;-67
2022/03/27 10:44:44;;;;;;;18.25;7.47;;;;;;;12.04;100.00;103108.94;10148120;28;20069;-68
2022/03/27 10:49:43;;;;;;;25.38;8.25;;;;;;;12.28;100.00;103104.63;10149007;28;20141;-68
2022/03/27 10:54:57;;;;;;;17.25;6.97;;;;;;;12.64;100.00;103113.72;10139201;28;20050;-68
2022/03/27 10:59:54;;;;;;;24.50;9.35;;;;;;;12.78;100.00;103114.00;10143465;28;20081;-68
2022/03/27 11:04:50;;;;;;;22.50;9.52;;;;;;;13.35;100.00;103105.75;10133270;28;20050;-68
2022/03/27 11:09:47;;;;;;;24.38;9.13;;;;;;;13.88;100.00;103092.34;10156127;28;20046;-68
2022/03/27 11:14:54;;;;;;;20.25;10.23;;;;;;;13.95;100.00;103098.38;10135979;28;20571;-67
2022/03/27 11:19:51;;;;;;;29.48;11.85;;;;;;;13.87;100.00;103090.69;10155713;28;20046;-67
2022/03/27 11:25:26;;;;;;;24.52;11.10;;;;;;;13.85;100.00;103092.91;10155033;28;20054;-68
2022/03/27 11:30:24;;;;;;;27.08;12.80;;;;;;;13.62;100.00;103086.97;10154752;28;20050;-68
2022/03/27 11:35:20;;;;;;;27.83;12.93;;;;;;;13.87;100.00;103075.00;10154352;28;20058;-68
2022/03/27 11:40:37;;;;;;;21.55;11.27;;;;;;;14.83;100.00;103062.78;10155021;28;20393;-67
2022/03/27 11:45:37;;;;;;;25.52;11.48;;;;;;;15.12;100.00;103076.56;10137133;28;20523;-68
2022/03/27 11:50:34;;;;;;;25.05;12.02;;;;;;;16.22;99.06;103062.78;10155108;28;20504;-68
2022/03/27 11:55:33;;;;;;;28.02;13.00;;;;;;;16.18;95.50;103054.31;10153578;28;20042;-70
2022/03/27 12:00:34;;;;;;;23.63;9.52;;;;;;;16.37;92.63;103061.75;10154276;28;20108;-68
2022/03/27 12:05:36;;;;;;;17.92;10.23;;;;;;;16.79;88.52;103054.44;10152795;28;20050;-67
2022/03/27 12:10:45;;;;;;;16.30;7.50;;;;;;;17.06;84.30;103044.53;10154007;28;20053;-69
2022/03/27 12:15:46;;;;;;;17.77;7.60;;;;;;;17.32;84.26;103042.13;10153061;28;20075;-69
2022/03/27 12:20:48;;;;;;;16.05;7.28;;;;;;;17.55;81.84;103040.25;10148912;28;20057;-70
2022/03/27 12:25:59;;;;;;;16.23;6.70;;;;;;;18.17;77.88;103035.00;10142621;28;20090;-69
2022/03/27 12:30:56;;;;;;;15.95;6.85;;;;;;;18.56;77.03;103040.97;10125931;28;20527;-68
2022/03/27 12:36:09;;;;;;;15.50;7.28;;;;;;;18.62;72.27;103035.00;10131217;28;20732;-68
2022/03/27 12:41:10;;;;;;;13.50;6.43;;;;;;;19.35;69.06;103023.59;10146859;28;20101;-68
2022/03/27 12:46:21;;;;;;;12.40;7.70;;;;;;;19.13;63.96;103033.66;10142172;28;20085;-68
2022/03/27 12:51:19;;;;;;;11.73;5.63;;;;;;;19.14;64.54;103024.19;10138563;28;20508;-69
2022/03/27 12:56:17;;;;;;;11.27;6.32;;;;;;;19.51;61.21;103022.00;10145589;28;20042;-68
2022/03/27 13:01:14;;;;;;;12.13;6.32;;;;;;;19.73;59.43;103012.78;10135960;28;20039;-68
2022/03/27 13:06:12;;;;;;;12.23;5.93;;;;;;;19.23;60.90;103009.53;10145044;28;20049;-68
2022/03/27 13:11:11;;;;;;;11.63;6.18;;;;;;;20.22;58.24;103000.69;10127178;28;20579;-68
2022/03/27 13:16:20;;;;;;;11.13;5.70;;;;;;;20.88;54.38;102990.06;10135645;28;20133;-68
2022/03/27 13:21:17;;;;;;;12.57;5.25;;;;;;;21.28;50.35;102988.88;10142908;28;20071;-69
2022/03/27 13:26:13;;;;;;;10.93;5.57;;;;;;;21.17;53.27;102985.69;10139624;28;20710;-68
2022/03/27 13:31:12;;;;;;;10.13;5.38;;;;;;;21.59;53.10;102981.00;10136658;28;20050;-69
2022/03/27 13:36:08;;;;;;;12.30;5.85;;;;;;;21.66;50.93;102974.09;10144091;28;20169;-69
2022/03/27 13:46:21;;;;;;;11.65;5.72;;;;;;;22.10;46.67;102960.59;10137192;28;20088;-69
2022/03/27 13:51:18;;;;;;;12.73;6.28;;;;;;;21.68;47.38;102949.53;10144360;28;20429;-69
2022/03/27 13:56:15;;;;;;;12.63;5.85;;;;;;;21.81;49.97;102956.75;10140757;28;20073;-69
2022/03/27 14:01:12;;;;;;;12.35;5.72;;;;;;;22.01;47.01;102947.56;10150230;28;20174;-69
2022/03/27 14:06:08;;;;;;;10.02;5.10;;;;;;;21.41;48.42;102940.53;10144617;28;20050;-69
2022/03/27 14:11:05;;;;;;;13.52;5.82;;;;;;;20.34;51.50;102934.97;10145904;28;20062;-69
2022/03/27 14:16:01;;;;;;;11.05;5.90;;;;;;;20.43;52.49;102920.25;10140520;28;20047;-67
2022/03/27 14:20:58;;;;;;;10.95;5.00;;;;;;;20.89;49.93;102924.16;10138987;28;20058;-68
2022/03/27 14:25:57;;;;;;;12.55;4.75;;;;;;;20.01;51.68;102908.91;10133957;28;20048;-68
2022/03/27 14:30:58;;;;;;;9.00;4.80;;;;;;;20.16;55.69;102903.63;10135923;28;20042;-68
2022/03/27 14:35:57;;;;;;;9.55;4.78;;;;;;;20.41;52.83;102891.97;10136423;28;20090;-68
2022/03/27 14:41:00;;;;;;;12.27;4.57;;;;;;;20.62;52.77;102887.31;10136424;28;20210;-69
2022/03/27 14:45:58;;;;;;;9.85;4.28;;;;;;;20.66;50.79;102888.28;10131863;28;20560;-69
2022/03/27 14:50:55;;;;;;;9.95;4.45;;;;;;;20.76;49.34;102882.34;10149943;28;20129;-69
2022/03/27 14:55:57;;;;;;;7.97;4.18;;;;;;;20.53;49.56;102878.19;10151014;28;20073;-66
2022/03/27 15:00:55;;;;;;;10.63;5.00;;;;;;;19.98;51.23;102863.16;10149520;28;20061;-65
2022/03/27 15:05:53;;;;;;;11.02;5.05;;;;;;;19.52;52.94;102862.72;10148826;28;20047;-66
2022/03/27 15:10:50;;;;;;;14.95;5.13;;;;;;;18.66;57.32;102853.13;10150563;28;20146;-68
2022/03/27 15:15:46;;;;;;;12.23;5.30;;;;;;;18.26;61.59;102839.31;10143508;28;20053;-66
2022/03/27 15:20:44;;;;;;;10.40;4.80;;;;;;;18.52;57.81;102835.81;10144248;28;20493;-66
2022/03/27 15:25:40;;;;;;;12.98;5.53;;;;;;;18.04;62.21;102831.03;10148472;28;20126;-66
2022/03/27 15:30:37;;;;;;;9.35;4.55;;;;;;;18.94;56.25;102830.72;10145802;28;20803;-66
2022/03/27 15:35:33;;;;;;;13.88;5.30;;;;;;;19.21;55.23;102826.81;10151372;28;20077;-66
2022/03/27 15:40:30;;;;;;;16.20;5.28;;;;;;;19.07;59.77;102818.66;10148879;28;20039;-66
2022/03/27 15:45:27;;;;;;;14.00;5.53;;;;;;;18.41;62.43;102815.09;10154851;28;20112;-66
2022/03/27 15:50:25;;;;;;;16.58;5.68;;;;;;;18.99;59.01;102822.25;10154527;28;20093;-66
2022/03/27 15:55:22;;;;;;;14.20;5.03;;;;;;;18.81;59.19;102815.06;10147301;28;20101;-67
2022/03/27 16:00:19;;;;;;;15.77;4.97;;;;;;;19.31;59.06;102818.19;10139369;28;20084;-66
2022/03/27 16:05:16;;;;;;;18.63;6.30;;;;;;;19.21;60.29;102807.41;10149269;28;20081;-66
2022/03/27 16:10:13;;;;;;;23.30;6.25;;;;;;;19.80;55.71;102806.91;10145532;28;20078;-70
2022/03/27 16:15:09;;;;;;;18.33;6.20;;;;;;;19.34;60.52;102806.44;10140742;28;20078;-72
2022/03/27 16:20:06;;;;;;;20.35;6.05;;;;;;;19.11;60.03;102797.47;10132731;28;20050;-70
2022/03/27 16:25:04;;;;;;;20.75;6.10;;;;;;;19.01;63.50;102797.78;10129336;28;20046;-70
2022/03/27 16:30:03;;;;;;;24.30;6.68;;;;;;;19.43;62.32;102787.03;10134276;28;20074;-71
2022/03/27 16:34:59;;;;;;;24.95;6.38;;;;;;;18.64;69.57;102788.91;10104614;28;20054;-71
2022/03/27 16:39:56;;;;;;;24.98;6.78;;;;;;;18.23;73.89;102784.53;10138685;28;20135;-71
2022/03/27 16:44:54;;;;;;;27.70;6.63;;;;;;;18.20;75.21;102782.44;10132065;28;20049;-70
2022/03/27 16:49:53;;;;;;;27.70;7.43;;;;;;;17.68;78.30;102779.34;10138874;28;20042;-71
2022/03/27 16:54:50;;;;;;;20.45;6.75;;;;;;;17.61;62.98;102784.53;10137868;28;20084;-70
2022/03/27 16:59:46;;;;;;;22.52;6.85;;;;;;;17.34;60.77;102775.25;10139026;28;20038;-71
2022/03/27 17:04:46;;;;;;;23.92;7.00;;;;;;;17.02;59.31;102785.38;10134182;28;20038;-70
2022/03/27 17:09:42;;;;;;;16.63;4.25;;;;;;;16.05;58.19;102790.13;10130969;28;20046;-71
2022/03/27 17:14:39;;;;;;;15.65;3.58;;;;;;;15.62;58.30;102784.81;10141240;28;20050;-73
2022/03/27 17:19:36;;;;;;;16.10;3.30;;;;;;;15.67;56.90;102778.41;10133749;28;20046;-69
2022/03/27 17:24:32;;;;;;;19.98;5.47;;;;;;;15.29;53.70;102782.06;10136013;28;20151;-70
2022/03/27 17:29:31;;;;;;;19.58;5.28;;;;;;;14.90;51.45;102783.19;10141703;28;20042;-71
2022/03/27 17:34:27;;;;;;;11.85;2.50;;;;;;;14.62;50.67;102775.84;10137933;28;20671;-69
2022/03/27 17:39:24;;;;;;;15.63;3.88;;;;;;;14.03;52.72;102789.69;10145646;28;20043;-69
2022/03/27 17:44:21;;;;;;;10.45;2.63;;;;;;;14.09;50.47;102790.47;10141904;28;20084;-70
2022/03/27 17:49:17;;;;;;;12.90;3.53;;;;;;;13.96;51.58;102780.97;10141423;28;20074;-69
2022/03/27 17:54:14;;;;;;;13.52;3.13;;;;;;;13.74;51.18;102788.88;10142265;28;20425;-71
2022/03/27 17:59:12;;;;;;;13.38;3.42;;;;;;;13.75;52.66;102790.53;10139415;28;20539;-70
2022/03/27 18:04:08;;;;;;;19.52;4.72;;;;;;;13.63;56.55;102786.22;10126464;28;20082;-70
2022/03/27 18:09:05;;;;;;;18.70;5.07;;;;;;;13.57;59.65;102790.13;10138153;28;20054;-69
2022/03/27 18:14:02;;;;;;;21.58;5.00;;;;;;;13.50;66.58;102784.13;10132248;28;20160;-69
2022/03/27 18:18:59;;;;;;;29.77;7.97;;;;;;;13.03;79.08;102791.03;10130722;28;20050;-69
2022/03/27 18:24:15;;;;;;;22.35;5.07;;;;;;;12.98;90.19;102788.31;10130915;28;20129;-71
2022/03/27 18:29:12;;;;;;;17.75;3.75;;;;;;;12.42;98.39;102782.00;10145412;28;20069;-69
2022/03/27 18:34:09;;;;;;;23.55;4.85;;;;;;;12.29;100.00;102782.59;10142501;28;20057;-69
2022/03/27 18:39:09;;;;;;;24.02;4.63;;;;;;;12.45;100.00;102785.28;10142985;28;20046;-70
2022/03/27 18:44:06;;;;;;;27.92;6.35;;;;;;;12.40;100.00;102788.88;10141155;28;20082;-70
2022/03/27 18:49:04;;;;;;;22.20;4.07;;;;;;;11.94;100.00;102789.78;10141290;28;20524;-69
2022/03/27 18:54:00;;;;;;;18.58;3.40;;;;;;;11.51;100.00;102786.53;10140997;28;20527;-71
2022/03/27 18:58:57;;;;;;;15.88;2.83;;;;;;;11.10;100.00;102789.19;10157273;28;20053;-71
2022/03/27 19:03:54;;;;;;;14.38;3.30;;;;;;;10.82;100.00;102793.25;10145219;28;20096;-70
2022/03/27 19:08:51;;;;;;;12.27;3.22;;;;;;;10.80;100.00;102783.66;10146873;28;20046;-70
2022/03/27 19:13:48;;;;;;;8.57;2.35;;;;;;;10.76;100.00;102782.53;10147028;28;20050;-70
2022/03/27 19:18:46;;;;;;;9.00;2.45;;;;;;;10.71;100.00;102786.06;10147057;28;20469;-70
2022/03/27 19:23:45;;;;;;;6.72;1.92;;;;;;;10.59;100.00;102783.56;10128091;28;20050;-70
2022/03/27 19:28:43;;;;;;;8.13;2.22;;;;;;;10.47;100.00;102780.25;10152032;28;20050;-70
2022/03/27 19:33:39;;;;;;;5.78;2.35;;;;;;;10.48;100.00;102784.63;10128110;28;20050;-69
2022/03/27 19:38:36;;;;;;;7.18;2.60;;;;;;;10.10;100.00;102786.59;10130600;28;20073;-70
2022/03/27 19:43:32;;;;;;;8.05;4.15;;;;;;;9.94;100.00;102796.59;10150951;28;20048;-69
2022/03/27 19:48:29;;;;;;;8.20;5.57;;;;;;;9.37;100.00;102798.03;10153491;28;20121;-70
2022/03/27 19:53:26;;;;;;;8.50;6.03;;;;;;;9.18;100.00;102794.03;10139808;28;20093;-72
2022/03/27 19:58:22;;;;;;;12.80;8.43;;;;;;;8.59;100.00;102795.56;10145725;28;20732;-72
2022/03/27 20:03:19;;;;;;;17.77;11.27;;;;;;;8.70;100.00;102807.38;10119850;28;20679;-72
2022/03/27 20:08:16;;;;;;;14.38;10.35;;;;;;;8.66;100.00;102794.50;10150076;28;20120;-72
2022/03/27 20:13:12;;;;;;;21.15;13.55;;;;;;;8.71;100.00;102791.88;10114191;28;20043;-72
2022/03/27 20:18:09;;;;;;;14.90;11.70;;;;;;;8.71;100.00;102791.88;10152269;28;20581;-72
2022/03/27 20:23:05;;;;;;;17.27;9.95;;;;;;;8.35;100.00;102800.38;10150948;28;20070;-71
2022/03/27 20:28:02;;;;;;;16.33;12.38;;;;;;;8.38;100.00;102801.78;10140778;28;20046;-72
2022/03/27 20:33:15;;;;;;;13.50;9.57;;;;;;;7.87;100.00;102798.31;10151743;28;20519;-72
2022/03/27 20:38:16;;;;;;;16.02;11.85;;;;;;;8.03;100.00;102808.38;10151025;28;20093;-72
2022/03/27 20:43:14;;;;;;;15.00;11.15;;;;;;;7.99;100.00;102799.88;10152515;28;20525;-72
2022/03/27 20:48:10;;;;;;;16.63;11.70;;;;;;;7.93;100.00;102797.31;10151187;28;20089;-72
2022/03/27 20:53:08;;;;;;;17.75;11.30;;;;;;;7.71;100.00;102799.97;10151636;28;20081;-72
2022/03/27 20:58:05;;;;;;;17.70;12.45;;;;;;;7.76;100.00;102792.69;10151059;28;20137;-72
2022/03/27 21:03:01;;;;;;;19.73;13.18;;;;;;;8.19;100.00;102799.34;10150883;28;20178;-72
2022/03/27 21:07:58;;;;;;;20.40;13.65;;;;;;;8.13;100.00;102797.63;10148499;28;20058;-72
2022/03/27 21:12:55;;;;;;;22.10;14.00;;;;;;;8.10;100.00;102789.97;10130159;28;20105;-72
2022/03/27 21:17:51;;;;;;;20.85;14.60;;;;;;;8.16;100.00;102790.84;10149924;28;20050;-71
2022/03/27 21:22:47;;;;;;;21.33;14.60;;;;;;;8.10;100.00;102789.97;10152426;28;20058;-72
2022/03/27 21:27:44;;;;;;;23.00;13.82;;;;;;;7.63;100.00;102792.19;10146274;28;20046;-71
2022/03/27 21:32:40;;;;;;;21.70;14.45;;;;;;;7.88;100.00;102783.63;10113319;28;20089;-72
2022/03/27 21:37:37;;;;;;;22.88;16.23;;;;;;;8.04;100.00;102779.22;10141611;28;20050;-69
2022/03/27 21:42:34;;;;;;;20.83;12.32;;;;;;;8.02;100.00;102774.84;10123093;28;20149;-66
2022/03/27 21:47:30;;;;;;;16.60;10.70;;;;;;;7.56;100.00;102770.59;10139310;28;20152;-67
2022/03/27 21:52:27;;;;;;;13.90;8.10;;;;;;;7.63;100.00;102775.88;10145293;28;20050;-69
2022/03/27 21:57:23;;;;;;;10.50;6.82;;;;;;;7.67;100.00;102766.97;10140793;28;20084;-73
2022/03/27 22:02:20;;;;;;;9.82;6.22;;;;;;;7.58;100.00;102776.59;10134668;28;20065;-74
2022/03/27 22:07:18;;;;;;;10.38;6.00;;;;;;;7.27;100.00;102770.66;10144312;28;20104;-69
2022/03/27 22:12:14;;;;;;;10.20;6.75;;;;;;;7.40;100.00;102771.41;10139199;28;20584;-69
2022/03/27 22:17:11;;;;;;;7.97;4.65;;;;;;;6.98;100.00;102763.59;10137051;28;20133;-69
2022/03/27 22:22:07;;;;;;;8.00;5.40;;;;;;;6.65;100.00;102762.41;10133188;28;20142;-67
2022/03/27 22:27:05;;;;;;;9.40;4.95;;;;;;;6.63;100.00;102751.75;10144596;28;20073;-67
2022/03/27 22:32:01;;;;;;;7.28;4.30;;;;;;;6.49;100.00;102762.09;10147470;28;20144;-66
2022/03/27 22:36:58;;;;;;;8.07;4.57;;;;;;;6.53;100.00;102752.38;10141794;28;20625;-66
2022/03/27 22:41:54;;;;;;;8.77;5.05;;;;;;;6.77;100.00;102755.03;10147252;28;20043;-66
2022/03/27 22:46:51;;;;;;;9.05;4.72;;;;;;;6.85;100.00;102754.66;10140824;28;20038;-65
2022/03/27 22:51:47;;;;;;;7.50;4.72;;;;;;;6.78;100.00;102753.13;10146742;28;20039;-65
2022/03/27 22:56:43;;;;;;;8.27;4.70;;;;;;;6.67;100.00;102752.13;10146004;28;20046;-65
2022/03/27 23:01:41;;;;;;;6.93;4.53;;;;;;;6.42;100.00;102750.53;10148186;28;20096;-65
2022/03/27 23:06:37;;;;;;;7.35;3.95;;;;;;;6.33;100.00;102743.81;10153680;28;20130;-65
2022/03/27 23:11:33;;;;;;;7.47;4.05;;;;;;;6.42;100.00;102734.22;10149484;28;20104;-67
2022/03/27 23:16:30;;;;;;;6.38;3.83;;;;;;;6.37;100.00;102738.75;10148992;28;20058;-66
2022/03/27 23:21:27;;;;;;;8.15;4.30;;;;;;;6.29;100.00;102729.06;10140660;28;20050;-66
2022/03/27 23:26:23;;;;;;;9.45;4.65;;;;;;;6.20;100.00;102728.63;10132317;28;20046;-66